sensor_id;sensor_type;location;lat;lon;timestamp;P1;durP1;ratioP1;P2;durP2;ratioP2
5379;SDS011;2713;42.680;23.310;2023-02-25T00:00:27;23.40;;;16.10;;
5379;SDS011;2713;42.680;23.310;2023-02-25T00:02:56;24.93;;;16.50;;
5379;SDS011;2713;42.680;23.310;2023-02-25T00:05:24;22.93;;;16.20;;
5379;SDS011;2713;42.680;23.310;2023-02-25T00:07:52;27.03;;;16.63;;
5379;SDS011;2713;42.680;23.310;2023-02-25T00:10:19;28.77;;;15.63;;
5379;SDS011;2713;42.680;23.310;2023-02-25T00:12:47;22.90;;;16.00;;
5379;SDS011;2713;42.680;23.310;2023-02-25T00:15:15;23.73;;;16.47;;
5379;SDS011;2713;42.680;23.310;2023-02-25T00:17:42;27.60;;;16.00;;
5379;SDS011;2713;42.680;23.310;2023-02-25T00:20:09;32.60;;;18.30;;
5379;SDS011;2713;42.680;23.310;2023-02-25T00:22:37;26.70;;;16.60;;
5379;SDS011;2713;42.680;23.310;2023-02-25T00:25:04;27.43;;;17.83;;
5379;SDS011;2713;42.680;23.310;2023-02-25T00:27:33;29.90;;;16.70;;
5379;SDS011;2713;42.680;23.310;2023-02-25T00:30:00;24.97;;;16.00;;
5379;SDS011;2713;42.680;23.310;2023-02-25T00:32:29;22.97;;;15.17;;
5379;SDS011;2713;42.680;23.310;2023-02-25T00:34:56;27.50;;;17.47;;
5379;SDS011;2713;42.680;23.310;2023-02-25T00:37:23;31.80;;;17.47;;
5379;SDS011;2713;42.680;23.310;2023-02-25T00:39:49;30.07;;;16.80;;
5379;SDS011;2713;42.680;23.310;2023-02-25T00:42:16;29.93;;;16.93;;
5379;SDS011;2713;42.680;23.310;2023-02-25T00:44:44;26.63;;;17.87;;
5379;SDS011;2713;42.680;23.310;2023-02-25T00:47:12;32.20;;;16.60;;
5379;SDS011;2713;42.680;23.310;2023-02-25T00:49:40;29.57;;;17.93;;
5379;SDS011;2713;42.680;23.310;2023-02-25T00:52:07;28.50;;;16.83;;
5379;SDS011;2713;42.680;23.310;2023-02-25T00:54:34;28.40;;;16.93;;
5379;SDS011;2713;42.680;23.310;2023-02-25T00:57:01;25.70;;;16.23;;
5379;SDS011;2713;42.680;23.310;2023-02-25T00:59:28;27.27;;;16.77;;
5379;SDS011;2713;42.680;23.310;2023-02-25T01:01:55;26.37;;;15.60;;
5379;SDS011;2713;42.680;23.310;2023-02-25T01:04:22;27.33;;;16.97;;
5379;SDS011;2713;42.680;23.310;2023-02-25T01:06:50;20.30;;;14.57;;
5379;SDS011;2713;42.680;23.310;2023-02-25T01:09:18;25.47;;;15.67;;
5379;SDS011;2713;42.680;23.310;2023-02-25T01:11:46;21.70;;;14.80;;
5379;SDS011;2713;42.680;23.310;2023-02-25T01:14:13;25.30;;;16.70;;
5379;SDS011;2713;42.680;23.310;2023-02-25T01:16:42;27.90;;;16.33;;
5379;SDS011;2713;42.680;23.310;2023-02-25T01:19:12;23.60;;;14.73;;
5379;SDS011;2713;42.680;23.310;2023-02-25T01:21:40;28.13;;;16.90;;
5379;SDS011;2713;42.680;23.310;2023-02-25T01:24:11;27.83;;;16.63;;
5379;SDS011;2713;42.680;23.310;2023-02-25T01:26:41;21.80;;;14.60;;
5379;SDS011;2713;42.680;23.310;2023-02-25T01:29:11;24.07;;;15.00;;
5379;SDS011;2713;42.680;23.310;2023-02-25T01:31:41;25.73;;;14.60;;
5379;SDS011;2713;42.680;23.310;2023-02-25T01:34:09;22.37;;;15.13;;
5379;SDS011;2713;42.680;23.310;2023-02-25T01:36:39;24.17;;;14.80;;
5379;SDS011;2713;42.680;23.310;2023-02-25T01:39:06;25.90;;;15.03;;
5379;SDS011;2713;42.680;23.310;2023-02-25T01:41:35;22.90;;;14.03;;
5379;SDS011;2713;42.680;23.310;2023-02-25T01:44:03;23.63;;;15.40;;
5379;SDS011;2713;42.680;23.310;2023-02-25T01:46:32;21.10;;;14.00;;
5379;SDS011;2713;42.680;23.310;2023-02-25T01:48:59;20.90;;;14.53;;
5379;SDS011;2713;42.680;23.310;2023-02-25T01:51:26;24.33;;;14.70;;
5379;SDS011;2713;42.680;23.310;2023-02-25T01:53:55;22.00;;;14.00;;
5379;SDS011;2713;42.680;23.310;2023-02-25T01:56:24;20.73;;;14.43;;
5379;SDS011;2713;42.680;23.310;2023-02-25T01:58:54;20.77;;;13.87;;
5379;SDS011;2713;42.680;23.310;2023-02-25T02:01:21;19.73;;;13.37;;
5379;SDS011;2713;42.680;23.310;2023-02-25T02:03:51;21.47;;;14.07;;
5379;SDS011;2713;42.680;23.310;2023-02-25T02:06:20;23.17;;;14.00;;
5379;SDS011;2713;42.680;23.310;2023-02-25T02:08:52;25.70;;;14.37;;
5379;SDS011;2713;42.680;23.310;2023-02-25T02:11:19;21.63;;;14.40;;
5379;SDS011;2713;42.680;23.310;2023-02-25T02:13:46;21.70;;;12.93;;
5379;SDS011;2713;42.680;23.310;2023-02-25T02:16:23;21.77;;;13.33;;
5379;SDS011;2713;42.680;23.310;2023-02-25T02:19:02;20.27;;;13.40;;
5379;SDS011;2713;42.680;23.310;2023-02-25T02:21:48;21.73;;;14.00;;
5379;SDS011;2713;42.680;23.310;2023-02-25T02:24:39;20.57;;;13.10;;
5379;SDS011;2713;42.680;23.310;2023-02-25T02:27:28;21.87;;;12.80;;
5379;SDS011;2713;42.680;23.310;2023-02-25T02:30:19;17.33;;;12.10;;
5379;SDS011;2713;42.680;23.310;2023-02-25T02:33:01;16.37;;;12.40;;
5379;SDS011;2713;42.680;23.310;2023-02-25T02:35:35;23.13;;;13.07;;
5379;SDS011;2713;42.680;23.310;2023-02-25T02:38:11;18.73;;;12.57;;
5379;SDS011;2713;42.680;23.310;2023-02-25T02:40:46;16.70;;;11.57;;
5379;SDS011;2713;42.680;23.310;2023-02-25T02:43:27;20.50;;;12.90;;
5379;SDS011;2713;42.680;23.310;2023-02-25T02:46:04;22.43;;;13.43;;
5379;SDS011;2713;42.680;23.310;2023-02-25T02:48:38;17.63;;;12.20;;
5379;SDS011;2713;42.680;23.310;2023-02-25T02:51:13;21.17;;;12.83;;
5379;SDS011;2713;42.680;23.310;2023-02-25T02:53:44;20.37;;;13.17;;
5379;SDS011;2713;42.680;23.310;2023-02-25T02:56:16;21.03;;;12.70;;
5379;SDS011;2713;42.680;23.310;2023-02-25T02:58:46;20.40;;;12.90;;
5379;SDS011;2713;42.680;23.310;2023-02-25T03:01:18;19.23;;;11.80;;
5379;SDS011;2713;42.680;23.310;2023-02-25T03:03:52;18.37;;;11.03;;
5379;SDS011;2713;42.680;23.310;2023-02-25T03:06:26;18.00;;;12.87;;
5379;SDS011;2713;42.680;23.310;2023-02-25T03:08:57;16.73;;;11.80;;
5379;SDS011;2713;42.680;23.310;2023-02-25T03:11:31;19.30;;;13.03;;
5379;SDS011;2713;42.680;23.310;2023-02-25T03:13:58;24.07;;;13.57;;
5379;SDS011;2713;42.680;23.310;2023-02-25T03:16:26;18.20;;;12.30;;
5379;SDS011;2713;42.680;23.310;2023-02-25T03:19:02;19.53;;;13.03;;
5379;SDS011;2713;42.680;23.310;2023-02-25T03:21:34;20.30;;;12.30;;
5379;SDS011;2713;42.680;23.310;2023-02-25T03:24:08;20.60;;;11.50;;
5379;SDS011;2713;42.680;23.310;2023-02-25T03:26:39;19.40;;;12.20;;
5379;SDS011;2713;42.680;23.310;2023-02-25T03:29:11;23.70;;;12.10;;
5379;SDS011;2713;42.680;23.310;2023-02-25T03:31:41;19.40;;;12.47;;
5379;SDS011;2713;42.680;23.310;2023-02-25T03:34:16;16.77;;;11.83;;
5379;SDS011;2713;42.680;23.310;2023-02-25T03:36:47;20.13;;;12.80;;
5379;SDS011;2713;42.680;23.310;2023-02-25T03:39:19;16.97;;;12.37;;
5379;SDS011;2713;42.680;23.310;2023-02-25T03:41:52;21.77;;;13.37;;
5379;SDS011;2713;42.680;23.310;2023-02-25T03:44:21;19.00;;;12.03;;
5379;SDS011;2713;42.680;23.310;2023-02-25T03:46:52;19.63;;;12.80;;
5379;SDS011;2713;42.680;23.310;2023-02-25T03:49:22;22.43;;;14.30;;
5379;SDS011;2713;42.680;23.310;2023-02-25T03:51:54;19.83;;;11.53;;
5379;SDS011;2713;42.680;23.310;2023-02-25T03:54:24;20.47;;;11.73;;
5379;SDS011;2713;42.680;23.310;2023-02-25T03:56:51;18.90;;;12.80;;
5379;SDS011;2713;42.680;23.310;2023-02-25T03:59:19;15.40;;;11.57;;
5379;SDS011;2713;42.680;23.310;2023-02-25T04:01:47;18.70;;;12.30;;
5379;SDS011;2713;42.680;23.310;2023-02-25T04:04:17;23.97;;;12.80;;
5379;SDS011;2713;42.680;23.310;2023-02-25T04:06:46;18.10;;;12.23;;
5379;SDS011;2713;42.680;23.310;2023-02-25T04:09:13;18.30;;;12.50;;
5379;SDS011;2713;42.680;23.310;2023-02-25T04:11:40;20.00;;;12.13;;
5379;SDS011;2713;42.680;23.310;2023-02-25T04:14:07;18.43;;;13.03;;
5379;SDS011;2713;42.680;23.310;2023-02-25T04:16:34;19.67;;;12.67;;
5379;SDS011;2713;42.680;23.310;2023-02-25T04:19:01;21.27;;;13.43;;
5379;SDS011;2713;42.680;23.310;2023-02-25T04:21:29;19.67;;;12.83;;
5379;SDS011;2713;42.680;23.310;2023-02-25T04:24:01;19.37;;;12.60;;
5379;SDS011;2713;42.680;23.310;2023-02-25T04:26:29;19.57;;;13.27;;
5379;SDS011;2713;42.680;23.310;2023-02-25T04:28:56;18.37;;;13.20;;
5379;SDS011;2713;42.680;23.310;2023-02-25T04:31:23;19.60;;;13.40;;
5379;SDS011;2713;42.680;23.310;2023-02-25T04:33:50;25.20;;;14.50;;
5379;SDS011;2713;42.680;23.310;2023-02-25T04:36:27;20.80;;;13.73;;
5379;SDS011;2713;42.680;23.310;2023-02-25T04:38:56;18.80;;;12.20;;
5379;SDS011;2713;42.680;23.310;2023-02-25T04:41:29;16.73;;;12.40;;
5379;SDS011;2713;42.680;23.310;2023-02-25T04:43:57;21.40;;;13.20;;
5379;SDS011;2713;42.680;23.310;2023-02-25T04:46:25;18.63;;;13.10;;
5379;SDS011;2713;42.680;23.310;2023-02-25T04:48:52;22.77;;;13.70;;
5379;SDS011;2713;42.680;23.310;2023-02-25T04:51:19;18.33;;;12.67;;
5379;SDS011;2713;42.680;23.310;2023-02-25T04:53:46;19.37;;;13.73;;
5379;SDS011;2713;42.680;23.310;2023-02-25T04:56:13;21.87;;;12.63;;
5379;SDS011;2713;42.680;23.310;2023-02-25T04:58:42;18.17;;;12.87;;
5379;SDS011;2713;42.680;23.310;2023-02-25T05:01:09;22.87;;;13.30;;
5379;SDS011;2713;42.680;23.310;2023-02-25T05:03:37;19.00;;;11.80;;
5379;SDS011;2713;42.680;23.310;2023-02-25T05:06:04;17.70;;;12.67;;
5379;SDS011;2713;42.680;23.310;2023-02-25T05:08:32;20.53;;;12.30;;
5379;SDS011;2713;42.680;23.310;2023-02-25T05:11:00;18.63;;;11.70;;
5379;SDS011;2713;42.680;23.310;2023-02-25T05:13:27;20.30;;;13.00;;
5379;SDS011;2713;42.680;23.310;2023-02-25T05:16:03;21.27;;;13.23;;
5379;SDS011;2713;42.680;23.310;2023-02-25T05:18:31;19.13;;;13.10;;
5379;SDS011;2713;42.680;23.310;2023-02-25T05:21:01;18.03;;;12.20;;
5379;SDS011;2713;42.680;23.310;2023-02-25T05:23:27;18.73;;;13.30;;
5379;SDS011;2713;42.680;23.310;2023-02-25T05:25:54;21.50;;;11.67;;
5379;SDS011;2713;42.680;23.310;2023-02-25T05:28:23;23.83;;;13.53;;
5379;SDS011;2713;42.680;23.310;2023-02-25T05:30:49;22.07;;;13.53;;
5379;SDS011;2713;42.680;23.310;2023-02-25T05:33:19;19.40;;;13.00;;
5379;SDS011;2713;42.680;23.310;2023-02-25T05:35:46;20.83;;;13.47;;
5379;SDS011;2713;42.680;23.310;2023-02-25T05:38:12;21.43;;;14.20;;
5379;SDS011;2713;42.680;23.310;2023-02-25T05:40:39;26.03;;;14.17;;
5379;SDS011;2713;42.680;23.310;2023-02-25T05:43:06;24.87;;;14.93;;
5379;SDS011;2713;42.680;23.310;2023-02-25T05:45:34;25.43;;;15.10;;
5379;SDS011;2713;42.680;23.310;2023-02-25T05:48:01;25.13;;;14.30;;
5379;SDS011;2713;42.680;23.310;2023-02-25T05:50:29;21.90;;;14.70;;
5379;SDS011;2713;42.680;23.310;2023-02-25T05:52:58;23.73;;;15.83;;
5379;SDS011;2713;42.680;23.310;2023-02-25T05:55:26;25.77;;;15.23;;
5379;SDS011;2713;42.680;23.310;2023-02-25T05:57:52;21.93;;;15.10;;
5379;SDS011;2713;42.680;23.310;2023-02-25T06:00:19;26.60;;;16.13;;
5379;SDS011;2713;42.680;23.310;2023-02-25T06:02:47;24.83;;;16.03;;
5379;SDS011;2713;42.680;23.310;2023-02-25T06:05:13;23.67;;;16.40;;
5379;SDS011;2713;42.680;23.310;2023-02-25T06:07:43;26.63;;;15.67;;
5379;SDS011;2713;42.680;23.310;2023-02-25T06:10:10;26.80;;;15.10;;
5379;SDS011;2713;42.680;23.310;2023-02-25T06:12:37;23.83;;;14.80;;
5379;SDS011;2713;42.680;23.310;2023-02-25T06:15:04;25.13;;;14.80;;
5379;SDS011;2713;42.680;23.310;2023-02-25T06:17:32;25.13;;;15.90;;
5379;SDS011;2713;42.680;23.310;2023-02-25T06:19:59;27.23;;;16.77;;
5379;SDS011;2713;42.680;23.310;2023-02-25T06:22:26;24.17;;;16.30;;
5379;SDS011;2713;42.680;23.310;2023-02-25T06:24:54;28.40;;;14.60;;
5379;SDS011;2713;42.680;23.310;2023-02-25T06:27:21;25.77;;;15.07;;
5379;SDS011;2713;42.680;23.310;2023-02-25T06:29:48;24.00;;;15.80;;
5379;SDS011;2713;42.680;23.310;2023-02-25T06:32:15;25.60;;;15.73;;
5379;SDS011;2713;42.680;23.310;2023-02-25T06:34:42;26.50;;;15.80;;
5379;SDS011;2713;42.680;23.310;2023-02-25T06:37:09;25.30;;;15.63;;
5379;SDS011;2713;42.680;23.310;2023-02-25T06:39:36;25.20;;;16.27;;
5379;SDS011;2713;42.680;23.310;2023-02-25T06:42:04;26.33;;;15.10;;
5379;SDS011;2713;42.680;23.310;2023-02-25T06:44:30;28.03;;;15.07;;
5379;SDS011;2713;42.680;23.310;2023-02-25T06:46:57;27.33;;;15.60;;
5379;SDS011;2713;42.680;23.310;2023-02-25T06:49:24;32.47;;;15.10;;
5379;SDS011;2713;42.680;23.310;2023-02-25T06:51:51;25.70;;;15.87;;
5379;SDS011;2713;42.680;23.310;2023-02-25T06:54:18;22.93;;;13.70;;
5379;SDS011;2713;42.680;23.310;2023-02-25T06:56:44;22.83;;;14.33;;
5379;SDS011;2713;42.680;23.310;2023-02-25T06:59:13;25.00;;;14.23;;
5379;SDS011;2713;42.680;23.310;2023-02-25T07:01:40;27.97;;;15.97;;
5379;SDS011;2713;42.680;23.310;2023-02-25T07:04:06;23.73;;;14.93;;
5379;SDS011;2713;42.680;23.310;2023-02-25T07:06:35;23.37;;;14.53;;
5379;SDS011;2713;42.680;23.310;2023-02-25T07:09:02;22.30;;;14.60;;
5379;SDS011;2713;42.680;23.310;2023-02-25T07:11:29;22.37;;;14.33;;
5379;SDS011;2713;42.680;23.310;2023-02-25T07:13:58;21.23;;;13.40;;
5379;SDS011;2713;42.680;23.310;2023-02-25T07:16:27;23.20;;;13.90;;
5379;SDS011;2713;42.680;23.310;2023-02-25T07:18:55;22.83;;;13.73;;
5379;SDS011;2713;42.680;23.310;2023-02-25T07:21:22;25.43;;;13.57;;
5379;SDS011;2713;42.680;23.310;2023-02-25T07:23:53;19.07;;;13.47;;
5379;SDS011;2713;42.680;23.310;2023-02-25T07:26:20;24.00;;;13.73;;
5379;SDS011;2713;42.680;23.310;2023-02-25T07:28:53;24.43;;;12.63;;
5379;SDS011;2713;42.680;23.310;2023-02-25T07:31:21;22.03;;;13.23;;
5379;SDS011;2713;42.680;23.310;2023-02-25T07:33:49;24.23;;;13.63;;
5379;SDS011;2713;42.680;23.310;2023-02-25T07:36:17;25.87;;;14.10;;
5379;SDS011;2713;42.680;23.310;2023-02-25T07:38:44;22.10;;;13.70;;
5379;SDS011;2713;42.680;23.310;2023-02-25T07:41:13;25.67;;;14.10;;
5379;SDS011;2713;42.680;23.310;2023-02-25T07:43:41;22.30;;;13.63;;
5379;SDS011;2713;42.680;23.310;2023-02-25T07:46:08;23.50;;;12.83;;
5379;SDS011;2713;42.680;23.310;2023-02-25T07:48:37;24.70;;;13.20;;
5379;SDS011;2713;42.680;23.310;2023-02-25T07:51:06;24.57;;;13.00;;
5379;SDS011;2713;42.680;23.310;2023-02-25T07:53:34;20.20;;;13.33;;
5379;SDS011;2713;42.680;23.310;2023-02-25T07:56:02;19.80;;;12.70;;
5379;SDS011;2713;42.680;23.310;2023-02-25T07:58:31;20.10;;;12.77;;
5379;SDS011;2713;42.680;23.310;2023-02-25T08:00:58;19.70;;;12.30;;
5379;SDS011;2713;42.680;23.310;2023-02-25T08:03:27;18.77;;;13.13;;
5379;SDS011;2713;42.680;23.310;2023-02-25T08:05:54;21.73;;;12.83;;
5379;SDS011;2713;42.680;23.310;2023-02-25T08:08:23;22.90;;;12.03;;
5379;SDS011;2713;42.680;23.310;2023-02-25T08:10:49;25.10;;;13.07;;
5379;SDS011;2713;42.680;23.310;2023-02-25T08:13:16;37.37;;;12.77;;
5379;SDS011;2713;42.680;23.310;2023-02-25T08:15:43;27.03;;;12.40;;
5379;SDS011;2713;42.680;23.310;2023-02-25T08:18:10;22.07;;;12.83;;
5379;SDS011;2713;42.680;23.310;2023-02-25T08:20:37;20.00;;;12.80;;
5379;SDS011;2713;42.680;23.310;2023-02-25T08:23:04;22.13;;;13.27;;
5379;SDS011;2713;42.680;23.310;2023-02-25T08:25:32;27.03;;;12.67;;
5379;SDS011;2713;42.680;23.310;2023-02-25T08:27:59;19.13;;;13.20;;
5379;SDS011;2713;42.680;23.310;2023-02-25T08:30:26;23.63;;;13.13;;
5379;SDS011;2713;42.680;23.310;2023-02-25T08:32:53;22.10;;;12.03;;
5379;SDS011;2713;42.680;23.310;2023-02-25T08:35:22;27.00;;;12.43;;
5379;SDS011;2713;42.680;23.310;2023-02-25T08:37:50;28.80;;;13.50;;
5379;SDS011;2713;42.680;23.310;2023-02-25T08:40:17;25.80;;;13.33;;
5379;SDS011;2713;42.680;23.310;2023-02-25T08:42:45;19.40;;;12.80;;
5379;SDS011;2713;42.680;23.310;2023-02-25T08:45:12;25.37;;;13.20;;
5379;SDS011;2713;42.680;23.310;2023-02-25T08:47:40;27.07;;;13.90;;
5379;SDS011;2713;42.680;23.310;2023-02-25T08:50:07;24.87;;;13.50;;
5379;SDS011;2713;42.680;23.310;2023-02-25T08:52:35;27.70;;;14.73;;
5379;SDS011;2713;42.680;23.310;2023-02-25T08:55:02;29.13;;;14.70;;
5379;SDS011;2713;42.680;23.310;2023-02-25T08:57:29;36.07;;;16.10;;
5379;SDS011;2713;42.680;23.310;2023-02-25T08:59:58;26.17;;;15.60;;
5379;SDS011;2713;42.680;23.310;2023-02-25T09:02:24;31.97;;;17.60;;
5379;SDS011;2713;42.680;23.310;2023-02-25T09:04:51;27.40;;;16.17;;
5379;SDS011;2713;42.680;23.310;2023-02-25T09:07:18;33.60;;;16.23;;
5379;SDS011;2713;42.680;23.310;2023-02-25T09:09:46;32.80;;;15.90;;
5379;SDS011;2713;42.680;23.310;2023-02-25T09:12:13;29.50;;;16.03;;
5379;SDS011;2713;42.680;23.310;2023-02-25T09:14:40;30.07;;;15.90;;
5379;SDS011;2713;42.680;23.310;2023-02-25T09:17:08;30.07;;;15.63;;
5379;SDS011;2713;42.680;23.310;2023-02-25T09:19:35;28.87;;;15.57;;
5379;SDS011;2713;42.680;23.310;2023-02-25T09:22:03;29.43;;;15.43;;
5379;SDS011;2713;42.680;23.310;2023-02-25T09:24:30;25.00;;;15.80;;
5379;SDS011;2713;42.680;23.310;2023-02-25T09:26:57;30.47;;;15.60;;
5379;SDS011;2713;42.680;23.310;2023-02-25T09:29:25;32.40;;;13.70;;
5379;SDS011;2713;42.680;23.310;2023-02-25T09:31:52;28.23;;;13.13;;
5379;SDS011;2713;42.680;23.310;2023-02-25T09:34:20;30.37;;;15.77;;
5379;SDS011;2713;42.680;23.310;2023-02-25T09:36:47;24.47;;;16.07;;
5379;SDS011;2713;42.680;23.310;2023-02-25T09:39:14;24.90;;;14.40;;
5379;SDS011;2713;42.680;23.310;2023-02-25T09:41:43;26.30;;;15.30;;
5379;SDS011;2713;42.680;23.310;2023-02-25T09:44:15;21.93;;;13.00;;
5379;SDS011;2713;42.680;23.310;2023-02-25T09:46:46;22.27;;;13.73;;
5379;SDS011;2713;42.680;23.310;2023-02-25T09:49:17;27.53;;;15.10;;
5379;SDS011;2713;42.680;23.310;2023-02-25T09:51:52;26.90;;;14.60;;
5379;SDS011;2713;42.680;23.310;2023-02-25T09:54:26;32.73;;;14.47;;
5379;SDS011;2713;42.680;23.310;2023-02-25T09:56:59;27.57;;;14.30;;
5379;SDS011;2713;42.680;23.310;2023-02-25T09:59:28;23.40;;;13.83;;
5379;SDS011;2713;42.680;23.310;2023-02-25T10:01:56;33.07;;;15.83;;
5379;SDS011;2713;42.680;23.310;2023-02-25T10:04:31;27.77;;;14.97;;
5379;SDS011;2713;42.680;23.310;2023-02-25T10:07:06;34.50;;;15.30;;
5379;SDS011;2713;42.680;23.310;2023-02-25T10:09:43;29.97;;;16.00;;
5379;SDS011;2713;42.680;23.310;2023-02-25T10:12:19;29.30;;;14.20;;
5379;SDS011;2713;42.680;23.310;2023-02-25T10:17:49;30.03;;;16.00;;
5379;SDS011;2713;42.680;23.310;2023-02-25T10:23:35;44.97;;;17.90;;
5379;SDS011;2713;42.680;23.310;2023-02-25T10:26:15;33.20;;;15.60;;
5379;SDS011;2713;42.680;23.310;2023-02-25T10:28:46;37.83;;;15.77;;
5379;SDS011;2713;42.680;23.310;2023-02-25T10:31:19;32.80;;;14.90;;
5379;SDS011;2713;42.680;23.310;2023-02-25T10:33:49;34.50;;;15.00;;
5379;SDS011;2713;42.680;23.310;2023-02-25T10:36:20;25.10;;;12.93;;
5379;SDS011;2713;42.680;23.310;2023-02-25T10:38:52;29.03;;;13.77;;
5379;SDS011;2713;42.680;23.310;2023-02-25T10:41:20;29.03;;;14.50;;
5379;SDS011;2713;42.680;23.310;2023-02-25T10:43:51;31.37;;;13.57;;
5379;SDS011;2713;42.680;23.310;2023-02-25T10:46:21;31.37;;;14.27;;
5379;SDS011;2713;42.680;23.310;2023-02-25T10:48:56;28.60;;;14.40;;
5379;SDS011;2713;42.680;23.310;2023-02-25T10:51:26;22.93;;;12.20;;
5379;SDS011;2713;42.680;23.310;2023-02-25T10:54:01;20.37;;;11.70;;
5379;SDS011;2713;42.680;23.310;2023-02-25T10:56:33;25.20;;;11.03;;
5379;SDS011;2713;42.680;23.310;2023-02-25T10:59:07;18.43;;;11.27;;
5379;SDS011;2713;42.680;23.310;2023-02-25T11:01:54;24.27;;;10.87;;
5379;SDS011;2713;42.680;23.310;2023-02-25T11:04:22;26.73;;;10.47;;
5379;SDS011;2713;42.680;23.310;2023-02-25T11:06:54;22.53;;;9.10;;
5379;SDS011;2713;42.680;23.310;2023-02-25T11:09:32;18.27;;;9.03;;
5379;SDS011;2713;42.680;23.310;2023-02-25T11:12:09;17.77;;;8.57;;
5379;SDS011;2713;42.680;23.310;2023-02-25T11:14:44;21.10;;;9.70;;
5379;SDS011;2713;42.680;23.310;2023-02-25T11:17:11;17.30;;;7.37;;
5379;SDS011;2713;42.680;23.310;2023-02-25T11:19:44;29.73;;;8.33;;
5379;SDS011;2713;42.680;23.310;2023-02-25T11:22:16;21.97;;;7.93;;
5379;SDS011;2713;42.680;23.310;2023-02-25T11:24:53;15.37;;;8.90;;
5379;SDS011;2713;42.680;23.310;2023-02-25T11:27:27;26.07;;;9.03;;
5379;SDS011;2713;42.680;23.310;2023-02-25T11:30:00;19.13;;;9.37;;
5379;SDS011;2713;42.680;23.310;2023-02-25T11:32:32;21.23;;;8.10;;
5379;SDS011;2713;42.680;23.310;2023-02-25T11:35:01;21.03;;;8.73;;
5379;SDS011;2713;42.680;23.310;2023-02-25T11:37:37;25.53;;;9.63;;
5379;SDS011;2713;42.680;23.310;2023-02-25T11:40:19;22.30;;;8.40;;
5379;SDS011;2713;42.680;23.310;2023-02-25T11:43:02;22.17;;;9.10;;
5379;SDS011;2713;42.680;23.310;2023-02-25T11:45:46;20.47;;;7.03;;
5379;SDS011;2713;42.680;23.310;2023-02-25T11:48:17;23.50;;;8.70;;
5379;SDS011;2713;42.680;23.310;2023-02-25T11:50:46;15.87;;;7.07;;
5379;SDS011;2713;42.680;23.310;2023-02-25T11:53:23;16.30;;;7.67;;
5379;SDS011;2713;42.680;23.310;2023-02-25T11:56:01;23.10;;;7.23;;
5379;SDS011;2713;42.680;23.310;2023-02-25T11:58:38;21.87;;;7.93;;
5379;SDS011;2713;42.680;23.310;2023-02-25T12:01:15;16.23;;;6.70;;
5379;SDS011;2713;42.680;23.310;2023-02-25T12:04:03;18.60;;;6.70;;
5379;SDS011;2713;42.680;23.310;2023-02-25T12:06:44;16.00;;;6.73;;
5379;SDS011;2713;42.680;23.310;2023-02-25T12:13:02;13.83;;;5.90;;
5379;SDS011;2713;42.680;23.310;2023-02-25T12:16:09;10.70;;;5.10;;
5379;SDS011;2713;42.680;23.310;2023-02-25T12:24:57;12.17;;;5.17;;
5379;SDS011;2713;42.680;23.310;2023-02-25T12:27:41;16.40;;;5.50;;
5379;SDS011;2713;42.680;23.310;2023-02-25T12:30:32;18.53;;;5.63;;
5379;SDS011;2713;42.680;23.310;2023-02-25T12:33:15;14.30;;;4.70;;
5379;SDS011;2713;42.680;23.310;2023-02-25T12:36:01;15.87;;;5.70;;
5379;SDS011;2713;42.680;23.310;2023-02-25T12:41:36;18.77;;;5.40;;
5379;SDS011;2713;42.680;23.310;2023-02-25T12:47:11;18.10;;;5.93;;
5379;SDS011;2713;42.680;23.310;2023-02-25T12:49:52;22.43;;;6.27;;
5379;SDS011;2713;42.680;23.310;2023-02-25T12:53:05;12.37;;;5.20;;
5379;SDS011;2713;42.680;23.310;2023-02-25T12:58:43;19.30;;;5.57;;
5379;SDS011;2713;42.680;23.310;2023-02-25T13:01:28;15.80;;;4.83;;
5379;SDS011;2713;42.680;23.310;2023-02-25T13:04:13;17.67;;;5.50;;
5379;SDS011;2713;42.680;23.310;2023-02-25T13:07:12;18.90;;;6.10;;
5379;SDS011;2713;42.680;23.310;2023-02-25T13:13:04;12.63;;;5.03;;
5379;SDS011;2713;42.680;23.310;2023-02-25T13:15:54;20.13;;;5.43;;
5379;SDS011;2713;42.680;23.310;2023-02-25T13:18:34;11.40;;;5.60;;
5379;SDS011;2713;42.680;23.310;2023-02-25T13:24:21;23.07;;;6.03;;
5379;SDS011;2713;42.680;23.310;2023-02-25T13:26:59;14.60;;;5.23;;
5379;SDS011;2713;42.680;23.310;2023-02-25T13:29:40;9.73;;;5.40;;
5379;SDS011;2713;42.680;23.310;2023-02-25T13:32:24;11.17;;;4.70;;
5379;SDS011;2713;42.680;23.310;2023-02-25T13:35:02;13.20;;;5.00;;
5379;SDS011;2713;42.680;23.310;2023-02-25T13:37:44;10.50;;;4.70;;
5379;SDS011;2713;42.680;23.310;2023-02-25T13:40:30;11.70;;;5.30;;
5379;SDS011;2713;42.680;23.310;2023-02-25T13:43:12;15.87;;;5.57;;
5379;SDS011;2713;42.680;23.310;2023-02-25T13:46:18;17.27;;;5.50;;
5379;SDS011;2713;42.680;23.310;2023-02-25T13:49:01;16.33;;;6.53;;
5379;SDS011;2713;42.680;23.310;2023-02-25T13:51:50;19.83;;;5.00;;
5379;SDS011;2713;42.680;23.310;2023-02-25T13:57:40;14.27;;;5.07;;
5379;SDS011;2713;42.680;23.310;2023-02-25T14:00:31;14.57;;;5.10;;
5379;SDS011;2713;42.680;23.310;2023-02-25T14:03:14;15.70;;;4.90;;
5379;SDS011;2713;42.680;23.310;2023-02-25T14:06:00;15.33;;;4.80;;
5379;SDS011;2713;42.680;23.310;2023-02-25T14:11:33;16.97;;;5.50;;
5379;SDS011;2713;42.680;23.310;2023-02-25T14:14:26;11.13;;;5.20;;
5379;SDS011;2713;42.680;23.310;2023-02-25T14:17:08;16.77;;;5.90;;
5379;SDS011;2713;42.680;23.310;2023-02-25T14:19:59;12.60;;;5.73;;
5379;SDS011;2713;42.680;23.310;2023-02-25T14:22:39;16.43;;;6.43;;
5379;SDS011;2713;42.680;23.310;2023-02-25T14:25:19;13.07;;;5.00;;
5379;SDS011;2713;42.680;23.310;2023-02-25T14:28:00;17.43;;;5.50;;
5379;SDS011;2713;42.680;23.310;2023-02-25T14:30:40;17.43;;;5.23;;
5379;SDS011;2713;42.680;23.310;2023-02-25T14:36:14;14.67;;;5.37;;
5379;SDS011;2713;42.680;23.310;2023-02-25T14:39:04;15.73;;;5.30;;
5379;SDS011;2713;42.680;23.310;2023-02-25T14:41:49;15.37;;;5.03;;
5379;SDS011;2713;42.680;23.310;2023-02-25T14:44:28;13.83;;;4.80;;
5379;SDS011;2713;42.680;23.310;2023-02-25T14:47:06;15.83;;;5.60;;
5379;SDS011;2713;42.680;23.310;2023-02-25T14:49:39;16.33;;;6.03;;
5379;SDS011;2713;42.680;23.310;2023-02-25T14:52:16;22.00;;;6.80;;
5379;SDS011;2713;42.680;23.310;2023-02-25T14:55:02;15.53;;;6.00;;
5379;SDS011;2713;42.680;23.310;2023-02-25T14:57:51;7.53;;;4.60;;
5379;SDS011;2713;42.680;23.310;2023-02-25T15:00:50;15.67;;;5.50;;
5379;SDS011;2713;42.680;23.310;2023-02-25T15:03:39;14.93;;;4.93;;
5379;SDS011;2713;42.680;23.310;2023-02-25T15:06:25;13.30;;;5.30;;
5379;SDS011;2713;42.680;23.310;2023-02-25T15:09:18;18.77;;;4.87;;
5379;SDS011;2713;42.680;23.310;2023-02-25T15:12:14;10.40;;;5.13;;
5379;SDS011;2713;42.680;23.310;2023-02-25T15:18:04;11.73;;;5.23;;
5379;SDS011;2713;42.680;23.310;2023-02-25T15:20:53;13.27;;;5.50;;
5379;SDS011;2713;42.680;23.310;2023-02-25T15:23:21;12.63;;;5.23;;
5379;SDS011;2713;42.680;23.310;2023-02-25T15:26:17;18.07;;;5.53;;
5379;SDS011;2713;42.680;23.310;2023-02-25T15:28:47;16.90;;;5.53;;
5379;SDS011;2713;42.680;23.310;2023-02-25T15:40:12;12.90;;;5.57;;
5379;SDS011;2713;42.680;23.310;2023-02-25T15:49:12;15.70;;;5.43;;
5379;SDS011;2713;42.680;23.310;2023-02-25T15:51:48;16.77;;;5.47;;
5379;SDS011;2713;42.680;23.310;2023-02-25T16:00:01;13.70;;;4.93;;
5379;SDS011;2713;42.680;23.310;2023-02-25T16:02:40;13.33;;;5.73;;
5379;SDS011;2713;42.680;23.310;2023-02-25T16:05:16;11.80;;;5.87;;
5379;SDS011;2713;42.680;23.310;2023-02-25T16:07:46;14.43;;;4.90;;
5379;SDS011;2713;42.680;23.310;2023-02-25T16:10:18;13.30;;;6.37;;
5379;SDS011;2713;42.680;23.310;2023-02-25T16:12:51;13.17;;;5.23;;